sensor_id;sensor_type;location;lat;lon;timestamp;P1;durP1;ratioP1;P2;durP2;ratioP2
47429;SDS011;33181;49.246;7.372;2023-05-16T00:00:30;23.80;;;17.50;;
47429;SDS011;33181;49.246;7.372;2023-05-16T00:02:59;26.73;;;19.00;;
47429;SDS011;33181;49.246;7.372;2023-05-16T00:05:27;26.03;;;17.97;;
47429;SDS011;33181;49.246;7.372;2023-05-16T00:07:53;31.10;;;19.43;;
47429;SDS011;33181;49.246;7.372;2023-05-16T00:10:19;28.07;;;19.77;;
47429;SDS011;33181;49.246;7.372;2023-05-16T00:12:45;25.20;;;18.10;;
47429;SDS011;33181;49.246;7.372;2023-05-16T00:15:16;25.60;;;18.40;;
47429;SDS011;33181;49.246;7.372;2023-05-16T00:17:44;25.10;;;17.70;;
47429;SDS011;33181;49.246;7.372;2023-05-16T00:20:11;30.10;;;19.50;;
47429;SDS011;33181;49.246;7.372;2023-05-16T00:22:41;30.67;;;20.00;;
47429;SDS011;33181;49.246;7.372;2023-05-16T00:25:07;23.80;;;17.60;;
47429;SDS011;33181;49.246;7.372;2023-05-16T00:27:34;29.20;;;18.53;;
47429;SDS011;33181;49.246;7.372;2023-05-16T00:30:01;26.00;;;17.80;;
47429;SDS011;33181;49.246;7.372;2023-05-16T00:32:31;27.70;;;19.10;;
47429;SDS011;33181;49.246;7.372;2023-05-16T00:34:57;29.80;;;18.73;;
47429;SDS011;33181;49.246;7.372;2023-05-16T00:37:22;29.90;;;18.90;;
47429;SDS011;33181;49.246;7.372;2023-05-16T00:39:51;29.40;;;18.47;;
47429;SDS011;33181;49.246;7.372;2023-05-16T00:42:19;26.33;;;17.93;;
47429;SDS011;33181;49.246;7.372;2023-05-16T00:44:46;28.23;;;18.30;;
47429;SDS011;33181;49.246;7.372;2023-05-16T00:47:12;32.37;;;18.03;;
47429;SDS011;33181;49.246;7.372;2023-05-16T00:49:38;30.40;;;17.33;;
47429;SDS011;33181;49.246;7.372;2023-05-16T00:52:04;26.80;;;15.77;;
47429;SDS011;33181;49.246;7.372;2023-05-16T00:54:30;24.30;;;16.40;;
47429;SDS011;33181;49.246;7.372;2023-05-16T00:56:56;27.70;;;16.27;;
47429;SDS011;33181;49.246;7.372;2023-05-16T00:59:22;27.40;;;15.90;;
47429;SDS011;33181;49.246;7.372;2023-05-16T01:01:49;23.27;;;15.00;;
47429;SDS011;33181;49.246;7.372;2023-05-16T01:04:16;21.37;;;14.77;;
47429;SDS011;33181;49.246;7.372;2023-05-16T01:06:43;26.37;;;15.83;;
47429;SDS011;33181;49.246;7.372;2023-05-16T01:09:10;22.17;;;14.67;;
47429;SDS011;33181;49.246;7.372;2023-05-16T01:20:44;24.10;;;14.07;;
47429;SDS011;33181;49.246;7.372;2023-05-16T01:26:22;20.80;;;14.20;;
47429;SDS011;33181;49.246;7.372;2023-05-16T01:28:51;22.10;;;13.80;;
47429;SDS011;33181;49.246;7.372;2023-05-16T01:31:21;23.53;;;14.60;;
47429;SDS011;33181;49.246;7.372;2023-05-16T01:33:48;22.87;;;14.03;;
47429;SDS011;33181;49.246;7.372;2023-05-16T01:42:34;20.23;;;12.70;;
47429;SDS011;33181;49.246;7.372;2023-05-16T01:45:15;23.37;;;13.37;;
47429;SDS011;33181;49.246;7.372;2023-05-16T01:48:00;21.07;;;12.90;;
47429;SDS011;33181;49.246;7.372;2023-05-16T01:50:35;19.93;;;12.87;;
47429;SDS011;33181;49.246;7.372;2023-05-16T01:53:08;21.07;;;13.37;;
47429;SDS011;33181;49.246;7.372;2023-05-16T01:55:47;19.83;;;12.80;;
47429;SDS011;33181;49.246;7.372;2023-05-16T01:58:18;17.20;;;11.10;;
47429;SDS011;33181;49.246;7.372;2023-05-16T02:00:47;21.87;;;12.30;;
47429;SDS011;33181;49.246;7.372;2023-05-16T02:03:13;20.17;;;13.20;;
47429;SDS011;33181;49.246;7.372;2023-05-16T02:05:39;17.80;;;11.50;;
47429;SDS011;33181;49.246;7.372;2023-05-16T02:08:04;19.67;;;12.10;;
47429;SDS011;33181;49.246;7.372;2023-05-16T02:10:32;21.13;;;12.70;;
47429;SDS011;33181;49.246;7.372;2023-05-16T02:12:58;17.63;;;10.90;;
47429;SDS011;33181;49.246;7.372;2023-05-16T02:15:23;19.33;;;11.67;;
47429;SDS011;33181;49.246;7.372;2023-05-16T02:17:49;19.10;;;11.27;;
47429;SDS011;33181;49.246;7.372;2023-05-16T02:20:15;18.00;;;12.30;;
47429;SDS011;33181;49.246;7.372;2023-05-16T02:22:41;19.20;;;12.03;;
47429;SDS011;33181;49.246;7.372;2023-05-16T02:25:08;19.23;;;11.73;;
47429;SDS011;33181;49.246;7.372;2023-05-16T02:27:34;19.07;;;11.93;;
47429;SDS011;33181;49.246;7.372;2023-05-16T02:30:00;17.87;;;11.67;;
47429;SDS011;33181;49.246;7.372;2023-05-16T02:32:26;18.10;;;10.90;;
47429;SDS011;33181;49.246;7.372;2023-05-16T02:34:52;17.43;;;11.10;;
47429;SDS011;33181;49.246;7.372;2023-05-16T02:37:18;16.60;;;10.97;;
47429;SDS011;33181;49.246;7.372;2023-05-16T02:39:44;17.93;;;11.63;;
47429;SDS011;33181;49.246;7.372;2023-05-16T02:42:09;17.80;;;11.23;;
47429;SDS011;33181;49.246;7.372;2023-05-16T02:44:35;18.20;;;12.30;;
47429;SDS011;33181;49.246;7.372;2023-05-16T02:47:01;19.70;;;11.93;;
47429;SDS011;33181;49.246;7.372;2023-05-16T02:49:27;18.03;;;11.47;;
47429;SDS011;33181;49.246;7.372;2023-05-16T02:51:52;19.37;;;12.40;;
47429;SDS011;33181;49.246;7.372;2023-05-16T02:54:18;17.90;;;12.30;;
47429;SDS011;33181;49.246;7.372;2023-05-16T02:56:44;16.53;;;11.10;;
47429;SDS011;33181;49.246;7.372;2023-05-16T02:59:10;19.00;;;12.40;;
47429;SDS011;33181;49.246;7.372;2023-05-16T03:01:37;16.33;;;10.83;;
47429;SDS011;33181;49.246;7.372;2023-05-16T03:04:03;15.53;;;10.40;;
47429;SDS011;33181;49.246;7.372;2023-05-16T03:06:29;18.30;;;12.03;;
47429;SDS011;33181;49.246;7.372;2023-05-16T03:08:55;19.43;;;12.67;;
47429;SDS011;33181;49.246;7.372;2023-05-16T03:11:21;18.90;;;12.63;;
47429;SDS011;33181;49.246;7.372;2023-05-16T03:13:48;16.37;;;11.50;;
47429;SDS011;33181;49.246;7.372;2023-05-16T03:16:15;19.90;;;11.83;;
47429;SDS011;33181;49.246;7.372;2023-05-16T03:18:41;18.57;;;11.90;;
47429;SDS011;33181;49.246;7.372;2023-05-16T03:21:07;18.53;;;12.13;;
47429;SDS011;33181;49.246;7.372;2023-05-16T03:23:33;21.17;;;12.70;;
47429;SDS011;33181;49.246;7.372;2023-05-16T03:25:58;17.13;;;11.73;;
47429;SDS011;33181;49.246;7.372;2023-05-16T03:28:25;18.27;;;12.47;;
47429;SDS011;33181;49.246;7.372;2023-05-16T03:30:51;18.83;;;11.13;;
47429;SDS011;33181;49.246;7.372;2023-05-16T03:33:17;17.33;;;12.03;;
47429;SDS011;33181;49.246;7.372;2023-05-16T03:35:43;21.73;;;12.90;;
47429;SDS011;33181;49.246;7.372;2023-05-16T03:38:10;19.20;;;11.83;;
47429;SDS011;33181;49.246;7.372;2023-05-16T03:40:36;17.00;;;11.80;;
47429;SDS011;33181;49.246;7.372;2023-05-16T03:43:02;17.57;;;11.60;;
47429;SDS011;33181;49.246;7.372;2023-05-16T03:45:28;16.83;;;10.90;;
47429;SDS011;33181;49.246;7.372;2023-05-16T03:47:55;18.73;;;11.60;;
47429;SDS011;33181;49.246;7.372;2023-05-16T03:50:21;19.27;;;11.43;;
47429;SDS011;33181;49.246;7.372;2023-05-16T03:52:47;17.83;;;11.50;;
47429;SDS011;33181;49.246;7.372;2023-05-16T03:55:13;20.00;;;11.10;;
47429;SDS011;33181;49.246;7.372;2023-05-16T03:57:40;18.90;;;11.47;;
47429;SDS011;33181;49.246;7.372;2023-05-16T04:00:08;23.40;;;11.20;;
47429;SDS011;33181;49.246;7.372;2023-05-16T04:02:36;19.30;;;10.90;;
47429;SDS011;33181;49.246;7.372;2023-05-16T04:05:08;18.67;;;9.50;;
47429;SDS011;33181;49.246;7.372;2023-05-16T04:07:36;18.00;;;9.83;;
47429;SDS011;33181;49.246;7.372;2023-05-16T04:10:02;15.27;;;9.90;;
47429;SDS011;33181;49.246;7.372;2023-05-16T04:12:29;15.50;;;10.27;;
47429;SDS011;33181;49.246;7.372;2023-05-16T04:14:54;15.47;;;9.43;;
47429;SDS011;33181;49.246;7.372;2023-05-16T04:17:20;16.10;;;9.77;;
47429;SDS011;33181;49.246;7.372;2023-05-16T04:19:46;17.57;;;9.17;;
47429;SDS011;33181;49.246;7.372;2023-05-16T04:22:12;12.77;;;8.63;;
47429;SDS011;33181;49.246;7.372;2023-05-16T04:24:38;13.53;;;9.10;;
47429;SDS011;33181;49.246;7.372;2023-05-16T04:27:03;14.10;;;8.97;;
47429;SDS011;33181;49.246;7.372;2023-05-16T04:29:33;12.03;;;8.43;;
47429;SDS011;33181;49.246;7.372;2023-05-16T04:31:59;16.13;;;8.77;;
47429;SDS011;33181;49.246;7.372;2023-05-16T04:34:26;14.07;;;8.93;;
47429;SDS011;33181;49.246;7.372;2023-05-16T04:36:52;15.13;;;9.43;;
47429;SDS011;33181;49.246;7.372;2023-05-16T04:39:19;12.73;;;7.90;;
47429;SDS011;33181;49.246;7.372;2023-05-16T04:41:45;15.63;;;8.97;;
47429;SDS011;33181;49.246;7.372;2023-05-16T04:44:12;16.23;;;8.77;;
47429;SDS011;33181;49.246;7.372;2023-05-16T04:46:38;13.17;;;8.50;;
47429;SDS011;33181;49.246;7.372;2023-05-16T04:49:04;14.07;;;8.97;;
47429;SDS011;33181;49.246;7.372;2023-05-16T04:51:30;14.53;;;7.93;;
47429;SDS011;33181;49.246;7.372;2023-05-16T04:53:57;12.50;;;7.70;;
47429;SDS011;33181;49.246;7.372;2023-05-16T04:56:24;14.57;;;7.93;;
47429;SDS011;33181;49.246;7.372;2023-05-16T04:58:50;12.30;;;8.40;;
47429;SDS011;33181;49.246;7.372;2023-05-16T05:01:17;11.00;;;7.97;;
47429;SDS011;33181;49.246;7.372;2023-05-16T05:03:42;13.10;;;8.10;;
47429;SDS011;33181;49.246;7.372;2023-05-16T05:06:08;14.37;;;7.83;;
47429;SDS011;33181;49.246;7.372;2023-05-16T05:08:35;12.60;;;8.40;;
47429;SDS011;33181;49.246;7.372;2023-05-16T05:11:01;10.57;;;7.30;;
47429;SDS011;33181;49.246;7.372;2023-05-16T05:13:26;10.83;;;6.83;;
47429;SDS011;33181;49.246;7.372;2023-05-16T05:15:52;8.83;;;6.03;;
47429;SDS011;33181;49.246;7.372;2023-05-16T05:18:20;10.33;;;7.07;;
47429;SDS011;33181;49.246;7.372;2023-05-16T05:20:46;10.13;;;6.30;;
47429;SDS011;33181;49.246;7.372;2023-05-16T05:23:12;8.60;;;5.90;;
47429;SDS011;33181;49.246;7.372;2023-05-16T05:25:38;9.20;;;5.90;;
47429;SDS011;33181;49.246;7.372;2023-05-16T05:28:04;11.37;;;5.37;;
47429;SDS011;33181;49.246;7.372;2023-05-16T05:30:30;7.23;;;5.20;;
47429;SDS011;33181;49.246;7.372;2023-05-16T05:32:56;7.80;;;4.80;;
47429;SDS011;33181;49.246;7.372;2023-05-16T05:35:27;6.50;;;4.23;;
47429;SDS011;33181;49.246;7.372;2023-05-16T05:37:59;5.97;;;4.27;;
47429;SDS011;33181;49.246;7.372;2023-05-16T05:40:25;6.50;;;4.20;;
47429;SDS011;33181;49.246;7.372;2023-05-16T05:42:51;5.80;;;4.30;;
47429;SDS011;33181;49.246;7.372;2023-05-16T05:45:17;5.70;;;4.10;;
47429;SDS011;33181;49.246;7.372;2023-05-16T05:47:43;4.90;;;3.70;;
47429;SDS011;33181;49.246;7.372;2023-05-16T05:50:09;10.30;;;3.83;;
47429;SDS011;33181;49.246;7.372;2023-05-16T05:52:36;5.73;;;3.77;;
47429;SDS011;33181;49.246;7.372;2023-05-16T05:55:02;4.30;;;3.30;;
47429;SDS011;33181;49.246;7.372;2023-05-16T05:57:29;4.03;;;3.03;;
47429;SDS011;33181;49.246;7.372;2023-05-16T05:59:55;4.77;;;3.20;;
47429;SDS011;33181;49.246;7.372;2023-05-16T06:02:20;3.77;;;3.17;;
47429;SDS011;33181;49.246;7.372;2023-05-16T06:04:46;3.73;;;2.90;;
47429;SDS011;33181;49.246;7.372;2023-05-16T06:07:15;4.50;;;2.90;;
47429;SDS011;33181;49.246;7.372;2023-05-16T06:09:42;2.97;;;2.40;;
47429;SDS011;33181;49.246;7.372;2023-05-16T06:12:08;3.33;;;2.67;;
47429;SDS011;33181;49.246;7.372;2023-05-16T06:14:34;4.40;;;2.37;;
47429;SDS011;33181;49.246;7.372;2023-05-16T06:17:00;4.73;;;2.27;;
47429;SDS011;33181;49.246;7.372;2023-05-16T06:19:26;3.17;;;2.47;;
47429;SDS011;33181;49.246;7.372;2023-05-16T06:21:55;3.30;;;2.60;;
47429;SDS011;33181;49.246;7.372;2023-05-16T06:24:21;2.90;;;2.30;;
47429;SDS011;33181;49.246;7.372;2023-05-16T06:26:46;2.80;;;2.10;;
47429;SDS011;33181;49.246;7.372;2023-05-16T06:29:14;2.60;;;2.10;;
47429;SDS011;33181;49.246;7.372;2023-05-16T06:31:41;2.43;;;2.03;;
47429;SDS011;33181;49.246;7.372;2023-05-16T06:34:06;2.87;;;2.13;;
47429;SDS011;33181;49.246;7.372;2023-05-16T06:36:32;2.93;;;2.13;;
47429;SDS011;33181;49.246;7.372;2023-05-16T06:38:58;2.57;;;2.23;;
47429;SDS011;33181;49.246;7.372;2023-05-16T06:41:24;2.40;;;1.90;;
47429;SDS011;33181;49.246;7.372;2023-05-16T06:43:50;3.97;;;2.10;;
47429;SDS011;33181;49.246;7.372;2023-05-16T06:46:16;3.80;;;2.43;;
47429;SDS011;33181;49.246;7.372;2023-05-16T06:48:42;2.83;;;2.00;;
47429;SDS011;33181;49.246;7.372;2023-05-16T06:51:08;2.40;;;2.00;;
47429;SDS011;33181;49.246;7.372;2023-05-16T06:53:34;3.70;;;1.97;;
47429;SDS011;33181;49.246;7.372;2023-05-16T06:56:00;2.90;;;2.20;;
47429;SDS011;33181;49.246;7.372;2023-05-16T06:58:27;2.83;;;2.03;;
47429;SDS011;33181;49.246;7.372;2023-05-16T07:00:53;2.60;;;2.07;;
47429;SDS011;33181;49.246;7.372;2023-05-16T07:03:18;2.20;;;1.80;;
47429;SDS011;33181;49.246;7.372;2023-05-16T07:05:44;2.37;;;1.90;;
47429;SDS011;33181;49.246;7.372;2023-05-16T07:08:18;2.20;;;1.80;;
47429;SDS011;33181;49.246;7.372;2023-05-16T07:10:52;2.20;;;1.70;;
47429;SDS011;33181;49.246;7.372;2023-05-16T07:13:18;2.97;;;2.37;;
47429;SDS011;33181;49.246;7.372;2023-05-16T07:15:44;2.37;;;1.90;;
47429;SDS011;33181;49.246;7.372;2023-05-16T07:18:10;2.30;;;1.87;;
47429;SDS011;33181;49.246;7.372;2023-05-16T07:20:36;2.80;;;2.00;;
47429;SDS011;33181;49.246;7.372;2023-05-16T07:23:01;3.03;;;1.83;;
47429;SDS011;33181;49.246;7.372;2023-05-16T07:25:27;2.80;;;2.07;;
47429;SDS011;33181;49.246;7.372;2023-05-16T07:27:55;3.07;;;2.03;;
47429;SDS011;33181;49.246;7.372;2023-05-16T07:30:25;2.13;;;1.90;;
47429;SDS011;33181;49.246;7.372;2023-05-16T07:32:51;13.20;;;2.10;;
47429;SDS011;33181;49.246;7.372;2023-05-16T07:35:18;2.53;;;1.80;;
47429;SDS011;33181;49.246;7.372;2023-05-16T07:37:44;2.53;;;2.00;;
47429;SDS011;33181;49.246;7.372;2023-05-16T07:40:10;2.40;;;1.80;;
47429;SDS011;33181;49.246;7.372;2023-05-16T07:42:36;2.90;;;2.00;;
47429;SDS011;33181;49.246;7.372;2023-05-16T07:45:03;3.37;;;2.03;;
47429;SDS011;33181;49.246;7.372;2023-05-16T07:47:31;2.20;;;1.87;;
47429;SDS011;33181;49.246;7.372;2023-05-16T07:49:57;2.17;;;1.83;;
47429;SDS011;33181;49.246;7.372;2023-05-16T07:52:23;5.60;;;2.10;;
47429;SDS011;33181;49.246;7.372;2023-05-16T07:54:48;3.80;;;2.33;;
47429;SDS011;33181;49.246;7.372;2023-05-16T07:57:15;4.43;;;2.20;;
47429;SDS011;33181;49.246;7.372;2023-05-16T07:59:42;2.83;;;1.90;;
47429;SDS011;33181;49.246;7.372;2023-05-16T08:02:09;2.13;;;1.80;;
47429;SDS011;33181;49.246;7.372;2023-05-16T08:04:39;2.40;;;2.00;;
47429;SDS011;33181;49.246;7.372;2023-05-16T08:07:28;3.93;;;1.90;;
47429;SDS011;33181;49.246;7.372;2023-05-16T08:09:55;2.50;;;2.00;;
47429;SDS011;33181;49.246;7.372;2023-05-16T08:12:22;2.70;;;1.97;;
47429;SDS011;33181;49.246;7.372;2023-05-16T08:14:49;3.57;;;2.07;;
47429;SDS011;33181;49.246;7.372;2023-05-16T08:17:15;8.13;;;2.30;;
47429;SDS011;33181;49.246;7.372;2023-05-16T08:19:41;2.80;;;2.17;;
47429;SDS011;33181;49.246;7.372;2023-05-16T08:22:10;2.77;;;2.00;;
47429;SDS011;33181;49.246;7.372;2023-05-16T08:24:36;2.80;;;2.13;;
47429;SDS011;33181;49.246;7.372;2023-05-16T08:27:02;4.33;;;2.20;;
47429;SDS011;33181;49.246;7.372;2023-05-16T08:29:28;2.67;;;2.27;;
47429;SDS011;33181;49.246;7.372;2023-05-16T08:32:01;9.40;;;2.30;;
47429;SDS011;33181;49.246;7.372;2023-05-16T08:34:35;3.10;;;2.20;;
47429;SDS011;33181;49.246;7.372;2023-05-16T08:37:01;3.73;;;2.27;;
47429;SDS011;33181;49.246;7.372;2023-05-16T08:39:35;3.30;;;2.20;;
47429;SDS011;33181;49.246;7.372;2023-05-16T08:42:39;5.83;;;2.50;;
47429;SDS011;33181;49.246;7.372;2023-05-16T08:45:11;3.07;;;2.33;;
47429;SDS011;33181;49.246;7.372;2023-05-16T08:47:40;2.67;;;2.20;;
47429;SDS011;33181;49.246;7.372;2023-05-16T08:50:08;3.67;;;2.50;;
47429;SDS011;33181;49.246;7.372;2023-05-16T08:52:35;2.80;;;2.30;;
47429;SDS011;33181;49.246;7.372;2023-05-16T08:55:07;4.27;;;2.63;;
47429;SDS011;33181;49.246;7.372;2023-05-16T08:57:52;2.93;;;2.37;;
47429;SDS011;33181;49.246;7.372;2023-05-16T09:00:19;4.03;;;2.50;;
47429;SDS011;33181;49.246;7.372;2023-05-16T09:02:45;3.50;;;2.43;;
47429;SDS011;33181;49.246;7.372;2023-05-16T09:05:16;2.90;;;2.37;;
47429;SDS011;33181;49.246;7.372;2023-05-16T09:07:42;2.80;;;2.43;;
47429;SDS011;33181;49.246;7.372;2023-05-16T09:10:09;3.47;;;2.80;;
47429;SDS011;33181;49.246;7.372;2023-05-16T09:12:36;3.80;;;2.77;;
47429;SDS011;33181;49.246;7.372;2023-05-16T09:15:06;3.50;;;2.73;;
47429;SDS011;33181;49.246;7.372;2023-05-16T09:17:35;3.80;;;2.70;;
47429;SDS011;33181;49.246;7.372;2023-05-16T09:22:53;5.67;;;2.30;;
47429;SDS011;33181;49.246;7.372;2023-05-16T09:25:27;4.13;;;2.50;;
47429;SDS011;33181;49.246;7.372;2023-05-16T09:27:55;3.00;;;2.43;;
47429;SDS011;33181;49.246;7.372;2023-05-16T09:30:27;2.97;;;2.43;;
47429;SDS011;33181;49.246;7.372;2023-05-16T09:32:55;3.57;;;2.50;;
47429;SDS011;33181;49.246;7.372;2023-05-16T09:35:22;3.10;;;2.50;;
47429;SDS011;33181;49.246;7.372;2023-05-16T09:37:49;2.93;;;2.43;;
47429;SDS011;33181;49.246;7.372;2023-05-16T09:40:22;4.40;;;2.43;;
47429;SDS011;33181;49.246;7.372;2023-05-16T09:43:01;3.57;;;2.70;;
47429;SDS011;33181;49.246;7.372;2023-05-16T09:45:29;3.83;;;2.83;;
47429;SDS011;33181;49.246;7.372;2023-05-16T09:48:00;5.40;;;2.70;;
47429;SDS011;33181;49.246;7.372;2023-05-16T09:50:35;3.80;;;2.87;;
47429;SDS011;33181;49.246;7.372;2023-05-16T09:53:02;4.63;;;3.30;;
47429;SDS011;33181;49.246;7.372;2023-05-16T09:55:29;3.83;;;2.80;;
47429;SDS011;33181;49.246;7.372;2023-05-16T09:57:56;4.40;;;2.93;;
47429;SDS011;33181;49.246;7.372;2023-05-16T10:00:33;3.87;;;3.30;;
47429;SDS011;33181;49.246;7.372;2023-05-16T10:03:00;6.03;;;3.67;;
47429;SDS011;33181;49.246;7.372;2023-05-16T10:05:29;4.30;;;3.70;;
47429;SDS011;33181;49.246;7.372;2023-05-16T10:07:56;4.33;;;3.60;;
47429;SDS011;33181;49.246;7.372;2023-05-16T10:10:23;4.63;;;3.30;;
47429;SDS011;33181;49.246;7.372;2023-05-16T10:12:50;5.23;;;3.67;;
47429;SDS011;33181;49.246;7.372;2023-05-16T10:15:17;7.03;;;3.80;;
47429;SDS011;33181;49.246;7.372;2023-05-16T10:17:45;4.53;;;3.80;;
47429;SDS011;33181;49.246;7.372;2023-05-16T10:20:18;4.40;;;3.53;;
47429;SDS011;33181;49.246;7.372;2023-05-16T10:22:47;5.53;;;3.90;;
47429;SDS011;33181;49.246;7.372;2023-05-16T10:25:24;5.23;;;4.10;;
47429;SDS011;33181;49.246;7.372;2023-05-16T10:28:03;5.60;;;4.03;;
47429;SDS011;33181;49.246;7.372;2023-05-16T10:30:30;5.70;;;4.00;;
47429;SDS011;33181;49.246;7.372;2023-05-16T10:32:58;7.40;;;4.10;;
47429;SDS011;33181;49.246;7.372;2023-05-16T10:35:29;4.77;;;4.10;;
47429;SDS011;33181;49.246;7.372;2023-05-16T10:37:57;9.73;;;4.50;;
47429;SDS011;33181;49.246;7.372;2023-05-16T10:40:24;10.60;;;4.80;;
47429;SDS011;33181;49.246;7.372;2023-05-16T10:42:59;7.30;;;4.57;;
47429;SDS011;33181;49.246;7.372;2023-05-16T10:45:27;10.43;;;4.50;;
47429;SDS011;33181;49.246;7.372;2023-05-16T10:47:53;14.57;;;5.23;;
47429;SDS011;33181;49.246;7.372;2023-05-16T10:50:39;7.50;;;4.73;;
47429;SDS011;33181;49.246;7.372;2023-05-16T10:53:52;8.60;;;5.40;;
47429;SDS011;33181;49.246;7.372;2023-05-16T11:06:25;9.03;;;4.00;;
47429;SDS011;33181;49.246;7.372;2023-05-16T11:19:58;7.63;;;3.70;;
47429;SDS011;33181;49.246;7.372;2023-05-16T11:22:26;7.30;;;3.50;;
47429;SDS011;33181;49.246;7.372;2023-05-16T11:27:41;9.63;;;3.47;;
47429;SDS011;33181;49.246;7.372;2023-05-16T11:32:43;7.57;;;3.57;;
47429;SDS011;33181;49.246;7.372;2023-05-16T11:35:11;7.50;;;3.20;;
47429;SDS011;33181;49.246;7.372;2023-05-16T11:37:39;4.60;;;3.30;;
47429;SDS011;33181;49.246;7.372;2023-05-16T11:40:06;9.60;;;3.50;;
47429;SDS011;33181;49.246;7.372;2023-05-16T11:42:36;7.20;;;3.00;;
47429;SDS011;33181;49.246;7.372;2023-05-16T11:45:11;6.93;;;4.03;;
47429;SDS011;33181;49.246;7.372;2023-05-16T11:47:49;8.57;;;3.60;;
47429;SDS011;33181;49.246;7.372;2023-05-16T11:50:19;5.00;;;3.47;;
47429;SDS011;33181;49.246;7.372;2023-05-16T11:52:51;7.60;;;3.20;;
47429;SDS011;33181;49.246;7.372;2023-05-16T11:55:23;11.20;;;3.60;;
47429;SDS011;33181;49.246;7.372;2023-05-16T11:57:57;8.53;;;3.67;;
47429;SDS011;33181;49.246;7.372;2023-05-16T12:00:24;9.30;;;3.50;;
47429;SDS011;33181;49.246;7.372;2023-05-16T12:02:52;10.57;;;3.37;;
47429;SDS011;33181;49.246;7.372;2023-05-16T12:05:19;6.30;;;3.50;;
47429;SDS011;33181;49.246;7.372;2023-05-16T12:07:51;6.43;;;3.23;;
47429;SDS011;33181;49.246;7.372;2023-05-16T12:10:20;8.93;;;3.27;;
47429;SDS011;33181;49.246;7.372;2023-05-16T12:12:47;10.07;;;3.57;;
47429;SDS011;33181;49.246;7.372;2023-05-16T12:15:17;7.17;;;3.13;;
47429;SDS011;33181;49.246;7.372;2023-05-16T12:17:43;7.20;;;3.63;;
47429;SDS011;33181;49.246;7.372;2023-05-16T12:20:10;7.10;;;3.50;;
47429;SDS011;33181;49.246;7.372;2023-05-16T12:22:42;9.87;;;3.60;;
47429;SDS011;33181;49.246;7.372;2023-05-16T12:25:28;8.47;;;3.40;;
47429;SDS011;33181;49.246;7.372;2023-05-16T12:27:57;5.90;;;3.10;;
47429;SDS011;33181;49.246;7.372;2023-05-16T12:30:26;9.03;;;3.73;;
47429;SDS011;33181;49.246;7.372;2023-05-16T12:33:03;7.03;;;3.50;;
47429;SDS011;33181;49.246;7.372;2023-05-16T12:35:39;6.30;;;3.43;;
47429;SDS011;33181;49.246;7.372;2023-05-16T12:38:10;7.23;;;3.40;;
47429;SDS011;33181;49.246;7.372;2023-05-16T12:40:38;7.67;;;3.53;;
47429;SDS011;33181;49.246;7.372;2023-05-16T12:43:12;5.57;;;3.33;;
47429;SDS011;33181;49.246;7.372;2023-05-16T12:45:48;8.97;;;3.67;;
47429;SDS011;33181;49.246;7.372;2023-05-16T12:48:18;6.17;;;3.50;;
47429;SDS011;33181;49.246;7.372;2023-05-16T12:50:45;8.83;;;3.43;;
47429;SDS011;33181;49.246;7.372;2023-05-16T12:53:11;7.70;;;3.70;;
47429;SDS011;33181;49.246;7.372;2023-05-16T12:55:38;5.90;;;2.90;;
47429;SDS011;33181;49.246;7.372;2023-05-16T12:58:05;4.83;;;2.83;;
47429;SDS011;33181;49.246;7.372;2023-05-16T13:00:31;6.30;;;3.13;;
47429;SDS011;33181;49.246;7.372;2023-05-16T13:02:57;5.70;;;2.77;;
47429;SDS011;33181;49.246;7.372;2023-05-16T13:05:23;7.43;;;3.07;;
47429;SDS011;33181;49.246;7.372;2023-05-16T13:07:49;8.90;;;3.17;;
47429;SDS011;33181;49.246;7.372;2023-05-16T13:10:16;6.80;;;2.50;;
47429;SDS011;33181;49.246;7.372;2023-05-16T13:12:43;5.80;;;2.80;;
47429;SDS011;33181;49.246;7.372;2023-05-16T13:15:09;5.80;;;2.80;;
47429;SDS011;33181;49.246;7.372;2023-05-16T13:17:39;6.13;;;2.50;;
47429;SDS011;33181;49.246;7.372;2023-05-16T13:20:08;4.50;;;2.40;;
47429;SDS011;33181;49.246;7.372;2023-05-16T13:22:40;5.77;;;2.50;;
47429;SDS011;33181;49.246;7.372;2023-05-16T13:25:08;6.80;;;2.37;;
47429;SDS011;33181;49.246;7.372;2023-05-16T13:27:35;4.00;;;2.30;;
47429;SDS011;33181;49.246;7.372;2023-05-16T13:30:01;5.40;;;2.50;;
47429;SDS011;33181;49.246;7.372;2023-05-16T13:32:31;3.93;;;2.10;;
47429;SDS011;33181;49.246;7.372;2023-05-16T13:34:57;3.33;;;2.10;;
47429;SDS011;33181;49.246;7.372;2023-05-16T13:37:22;6.10;;;2.50;;
47429;SDS011;33181;49.246;7.372;2023-05-16T13:39:48;4.67;;;2.27;;
47429;SDS011;33181;49.246;7.372;2023-05-16T13:42:14;3.83;;;2.50;;
47429;SDS011;33181;49.246;7.372;2023-05-16T13:44:52;5.07;;;2.20;;
47429;SDS011;33181;49.246;7.372;2023-05-16T13:47:56;4.50;;;2.10;;
47429;SDS011;33181;49.246;7.372;2023-05-16T13:50:24;6.30;;;2.67;;
47429;SDS011;33181;49.246;7.372;2023-05-16T13:52:50;6.10;;;2.07;;
47429;SDS011;33181;49.246;7.372;2023-05-16T13:55:16;6.07;;;2.30;;
47429;SDS011;33181;49.246;7.372;2023-05-16T13:57:42;3.53;;;2.13;;
47429;SDS011;33181;49.246;7.372;2023-05-16T14:00:08;8.13;;;2.13;;
47429;SDS011;33181;49.246;7.372;2023-05-16T14:02:38;7.00;;;2.50;;
47429;SDS011;33181;49.246;7.372;2023-05-16T14:05:05;5.20;;;2.43;;
47429;SDS011;33181;49.246;7.372;2023-05-16T14:07:32;4.03;;;2.20;;
47429;SDS011;33181;49.246;7.372;2023-05-16T14:09:58;6.30;;;3.43;;
47429;SDS011;33181;49.246;7.372;2023-05-16T14:12:24;4.60;;;2.50;;
47429;SDS011;33181;49.246;7.372;2023-05-16T14:14:50;5.10;;;2.50;;
47429;SDS011;33181;49.246;7.372;2023-05-16T14:17:16;6.27;;;2.40;;
47429;SDS011;33181;49.246;7.372;2023-05-16T14:19:42;4.27;;;2.43;;
47429;SDS011;33181;49.246;7.372;2023-05-16T14:22:07;7.33;;;2.77;;
47429;SDS011;33181;49.246;7.372;2023-05-16T14:24:33;8.37;;;2.80;;
47429;SDS011;33181;49.246;7.372;2023-05-16T14:26:59;5.70;;;3.07;;
47429;SDS011;33181;49.246;7.372;2023-05-16T14:29:25;4.93;;;2.90;;
47429;SDS011;33181;49.246;7.372;2023-05-16T14:31:52;7.30;;;3.00;;
47429;SDS011;33181;49.246;7.372;2023-05-16T14:34:18;7.87;;;3.17;;
47429;SDS011;33181;49.246;7.372;2023-05-16T14:36:44;6.20;;;2.63;;
47429;SDS011;33181;49.246;7.372;2023-05-16T14:39:09;7.13;;;3.20;;
47429;SDS011;33181;49.246;7.372;2023-05-16T14:41:36;8.27;;;3.00;;
47429;SDS011;33181;49.246;7.372;2023-05-16T14:44:01;5.57;;;2.90;;
47429;SDS011;33181;49.246;7.372;2023-05-16T14:46:27;7.20;;;3.03;;
47429;SDS011;33181;49.246;7.372;2023-05-16T14:48:53;4.90;;;2.97;;
47429;SDS011;33181;49.246;7.372;2023-05-16T14:51:19;6.77;;;2.70;;
47429;SDS011;33181;49.246;7.372;2023-05-16T14:53:45;4.23;;;2.80;;
47429;SDS011;33181;49.246;7.372;2023-05-16T14:56:11;6.30;;;3.00;;
47429;SDS011;33181;49.246;7.372;2023-05-16T14:58:37;9.40;;;3.13;;
47429;SDS011;33181;49.246;7.372;2023-05-16T15:01:02;9.70;;;3.07;;
47429;SDS011;33181;49.246;7.372;2023-05-16T15:03:29;7.47;;;3.10;;
47429;SDS011;33181;49.246;7.372;2023-05-16T15:05:57;5.30;;;2.70;;
47429;SDS011;33181;49.246;7.372;2023-05-16T15:08:23;6.50;;;2.80;;
47429;SDS011;33181;49.246;7.372;2023-05-16T15:10:49;6.37;;;2.67;;
47429;SDS011;33181;49.246;7.372;2023-05-16T15:13:14;8.97;;;3.00;;
47429;SDS011;33181;49.246;7.372;2023-05-16T15:15:40;10.83;;;2.93;;
47429;SDS011;33181;49.246;7.372;2023-05-16T15:18:06;6.93;;;2.97;;
47429;SDS011;33181;49.246;7.372;2023-05-16T15:20:34;5.10;;;2.60;;
47429;SDS011;33181;49.246;7.372;2023-05-16T15:23:00;4.87;;;3.07;;
47429;SDS011;33181;49.246;7.372;2023-05-16T15:25:26;9.03;;;3.07;;
47429;SDS011;33181;49.246;7.372;2023-05-16T15:27:52;5.27;;;2.63;;
47429;SDS011;33181;49.246;7.372;2023-05-16T15:30:19;4.80;;;2.87;;